Time;durP1;ratioP1;P1;durP2;ratioP2;P2;SDS_P1;SDS_P2;PMS_P1;PMS_P2;Temp;Humidity;BMP_temperature;BMP_pressure;BME280_temperature;BME280_humidity;BME280_pressure;Samples;Min_cycle;Max_cycle;Signal;HPM_P1;HPM_P2
2021/06/17 00:01:24;;;;;;;3.08;1.80;;;;;;;16.97;68.83;97912.36;1756386;82;20973;-64
2021/06/17 00:03:51;;;;;;;2.62;2.08;;;;;;;16.99;69.03;97907.76;1756175;82;21012;-63
2021/06/17 00:06:18;;;;;;;3.27;2.27;;;;;;;17.01;68.48;97907.56;1756130;82;21033;-63
2021/06/17 00:08:45;;;;;;;3.67;1.70;;;;;;;17.03;69.76;97909.52;1756285;82;21008;-63
2021/06/17 00:11:12;;;;;;;2.02;1.55;;;;;;;17.04;69.15;97916.39;1756448;82;21422;-64
2021/06/17 00:13:39;;;;;;;2.20;1.60;;;;;;;17.03;68.62;97918.20;1756372;82;21012;-63
2021/06/17 00:16:08;;;;;;;6.75;1.90;;;;;;;17.03;68.23;97924.77;1756434;82;21056;-64
2021/06/17 00:18:36;;;;;;;3.30;2.25;;;;;;;17.00;70.15;97919.86;1756259;82;21465;-64
2021/06/17 00:21:05;;;;;;;4.37;1.80;;;;;;;16.88;71.38;97920.04;1756324;82;21027;-63
2021/06/17 00:23:33;;;;;;;2.85;2.10;;;;;;;16.85;71.35;97913.01;1756149;82;21044;-64
2021/06/17 00:26:02;;;;;;;2.75;1.90;;;;;;;16.77;71.82;97918.38;1756294;82;21000;-63
2021/06/17 00:28:30;;;;;;;3.08;1.87;;;;;;;16.71;72.14;97913.85;1757273;81;21174;-64
2021/06/17 00:30:58;;;;;;;2.00;1.37;;;;;;;16.67;71.71;97915.21;1747546;82;20986;-64
2021/06/17 00:33:25;;;;;;;2.37;1.50;;;;;;;16.61;72.63;97910.21;1747750;82;21469;-64
2021/06/17 00:35:52;;;;;;;3.70;1.80;;;;;;;16.58;72.24;97915.30;1747681;82;21029;-64
2021/06/17 00:38:19;;;;;;;1.85;1.47;;;;;;;16.54;72.12;97914.50;1747854;82;21024;-64
2021/06/17 00:40:46;;;;;;;3.05;1.70;;;;;;;16.55;72.28;97913.02;1747727;82;21505;-64
2021/06/17 00:43:14;;;;;;;3.55;1.57;;;;;;;16.55;72.68;97921.38;1748069;82;21052;-63
2021/06/17 00:45:45;;;;;;;2.22;1.47;;;;;;;16.55;71.65;97924.81;1747693;82;21079;-63
2021/06/17 00:48:14;;;;;;;2.15;1.42;;;;;;;16.55;71.93;97918.75;1747785;82;21052;-64
2021/06/17 00:50:46;;;;;;;2.45;1.62;;;;;;;16.51;72.99;97917.00;1747788;82;20983;-64
2021/06/17 00:53:16;;;;;;;5.03;2.10;;;;;;;16.49;71.44;97916.88;1747404;82;20978;-63
2021/06/17 00:55:46;;;;;;;4.03;1.80;;;;;;;16.47;71.53;97911.80;1747668;82;21473;-64
2021/06/17 00:58:13;;;;;;;3.22;1.77;;;;;;;16.48;71.01;97913.43;1747787;82;21036;-63
2021/06/17 01:00:41;;;;;;;4.12;1.70;;;;;;;16.49;70.61;97907.70;1747842;82;21044;-63
2021/06/17 01:03:09;;;;;;;3.22;1.90;;;;;;;16.47;71.77;97912.29;1747782;82;21017;-63
2021/06/17 01:05:37;;;;;;;2.30;2.08;;;;;;;16.44;71.80;97908.23;1753152;82;20997;-63
2021/06/17 01:08:30;;;;;;;3.65;2.12;;;;;;;16.34;73.31;97913.44;1747754;82;21088;-63
2021/06/17 01:11:11;;;;;;;4.58;2.40;;;;;;;16.33;71.99;97912.62;1748163;82;21041;-63
2021/06/17 01:14:02;;;;;;;2.85;1.95;;;;;;;16.29;71.36;97920.52;1743227;82;21009;-64
2021/06/17 01:16:40;;;;;;;3.05;1.90;;;;;;;16.29;72.40;97922.32;1747868;82;21055;-63
2021/06/17 01:19:33;;;;;;;3.37;2.25;;;;;;;16.20;72.27;97916.34;1747927;82;21434;-64
2021/06/17 01:22:17;;;;;;;3.30;1.98;;;;;;;16.18;72.85;97920.14;1747596;82;21080;-64
2021/06/17 01:25:07;;;;;;;2.60;2.00;;;;;;;16.10;72.55;97917.11;1747574;82;21110;-63
2021/06/17 01:28:11;;;;;;;4.45;2.52;;;;;;;16.04;73.72;97919.11;1747494;80;21008;-63
2021/06/17 01:30:45;;;;;;;3.75;2.30;;;;;;;16.00;72.49;97919.97;1724382;83;21080;-64
2021/06/17 01:33:14;;;;;;;2.00;1.70;;;;;;;15.97;72.05;97920.33;1744569;82;21029;-63
2021/06/17 01:35:45;;;;;;;2.55;1.92;;;;;;;15.94;72.89;97915.94;1747744;82;20962;-63
2021/06/17 01:38:18;;;;;;;2.45;1.70;;;;;;;15.86;73.65;97911.59;1747673;82;21506;-63
2021/06/17 01:40:46;;;;;;;2.90;1.90;;;;;;;15.83;73.34;97908.52;1746956;82;21103;-63
2021/06/17 01:43:17;;;;;;;3.05;2.25;;;;;;;15.80;71.97;97902.30;1747747;82;21009;-64
2021/06/17 01:45:46;;;;;;;2.25;1.70;;;;;;;15.75;72.37;97909.40;1747797;82;21123;-63
2021/06/17 01:48:14;;;;;;;4.65;2.02;;;;;;;15.69;71.41;97908.78;1748015;81;21448;-64
2021/06/17 01:50:44;;;;;;;2.60;1.92;;;;;;;15.63;73.81;97906.88;1747583;82;21505;-62
2021/06/17 01:53:14;;;;;;;6.75;2.27;;;;;;;15.57;74.68;97904.95;1747849;82;21445;-64
2021/06/17 01:55:42;;;;;;;2.92;2.17;;;;;;;15.49;74.54;97905.82;1747717;82;21056;-62
2021/06/17 01:58:13;;;;;;;3.77;2.58;;;;;;;15.40;75.13;97907.34;1747555;82;21041;-63
2021/06/17 02:00:44;;;;;;;2.87;1.85;;;;;;;15.35;75.70;97906.55;1747618;81;21020;-62
2021/06/17 02:03:12;;;;;;;3.98;2.12;;;;;;;15.23;76.48;97905.81;1747590;82;21020;-63
2021/06/17 02:05:39;;;;;;;3.45;2.30;;;;;;;15.20;75.65;97905.67;1747988;82;21053;-64
2021/06/17 02:08:08;;;;;;;3.62;2.37;;;;;;;15.07;77.46;97899.69;1747764;82;21536;-64
2021/06/17 02:10:41;;;;;;;3.58;2.45;;;;;;;15.04;77.11;97914.42;1747824;82;21442;-64
2021/06/17 02:13:15;;;;;;;2.27;2.00;;;;;;;14.99;77.54;97914.12;1747540;82;21052;-64
2021/06/17 02:15:47;;;;;;;4.97;2.33;;;;;;;14.92;77.54;97910.56;1747632;82;21023;-64
2021/06/17 02:18:23;;;;;;;3.72;2.25;;;;;;;14.87;78.13;97915.97;1747734;81;21044;-63
2021/06/17 02:20:51;;;;;;;2.98;1.98;;;;;;;14.81;78.22;97918.79;1747824;82;21145;-62
2021/06/17 02:23:19;;;;;;;2.90;1.65;;;;;;;14.73;78.25;97909.19;1747793;82;21009;-64
2021/06/17 02:25:47;;;;;;;3.62;1.77;;;;;;;14.78;78.27;97920.93;1747668;82;21024;-64
2021/06/17 02:28:21;;;;;;;4.87;2.55;;;;;;;14.80;77.99;97918.95;1747413;82;21084;-62
2021/06/17 02:30:50;;;;;;;1.82;1.52;;;;;;;14.76;77.94;97926.80;1748091;82;21446;-62
2021/06/17 02:33:20;;;;;;;3.35;1.82;;;;;;;14.76;78.50;97925.02;1748141;82;21044;-62
2021/06/17 02:35:51;;;;;;;3.37;1.98;;;;;;;14.79;78.47;97916.82;1747846;82;21044;-62
2021/06/17 02:38:26;;;;;;;4.12;2.10;;;;;;;14.84;78.10;97915.83;1747889;82;21009;-63
2021/06/17 02:40:58;;;;;;;3.65;2.15;;;;;;;14.84;78.02;97921.55;1747758;82;21112;-62
2021/06/17 02:43:26;;;;;;;2.95;1.80;;;;;;;14.87;77.33;97925.12;1748032;82;21481;-63
2021/06/17 02:45:55;;;;;;;3.12;1.95;;;;;;;14.91;76.84;97920.69;1751711;82;21604;-64
2021/06/17 02:48:22;;;;;;;2.50;1.85;;;;;;;14.91;76.93;97918.08;1747776;82;21087;-65
2021/06/17 02:50:50;;;;;;;2.92;2.05;;;;;;;14.93;76.56;97925.27;1747750;82;21021;-64
2021/06/17 02:53:18;;;;;;;3.08;1.87;;;;;;;14.97;76.87;97925.74;1748160;82;21446;-62
2021/06/17 02:55:45;;;;;;;3.00;2.02;;;;;;;15.00;76.68;97930.63;1747810;82;21068;-62
2021/06/17 02:58:36;;;;;;;1.72;1.40;;;;;;;15.00;76.83;97917.55;1748498;82;21020;-62
2021/06/17 03:01:32;;;;;;;1.92;1.30;;;;;;;15.03;76.48;97920.64;1748042;82;21088;-61
2021/06/17 03:04:08;;;;;;;2.72;1.62;;;;;;;15.06;76.40;97918.98;1747994;82;20989;-62
2021/06/17 03:06:49;;;;;;;2.95;1.25;;;;;;;15.11;76.20;97912.75;1745737;82;21048;-61
2021/06/17 03:09:36;;;;;;;2.60;1.85;;;;;;;15.15;74.93;97904.06;1747717;81;21036;-61
2021/06/17 03:12:05;;;;;;;2.40;1.85;;;;;;;15.20;74.73;97912.22;1747834;82;21053;-62
2021/06/17 03:14:36;;;;;;;2.52;1.80;;;;;;;15.22;74.59;97915.45;1748027;82;21056;-65
2021/06/17 03:17:06;;;;;;;3.70;1.67;;;;;;;15.23;73.81;97918.89;1747812;82;21052;-62
2021/06/17 03:19:34;;;;;;;3.00;1.62;;;;;;;15.21;72.82;97922.48;1744554;82;21008;-62
2021/06/17 03:22:06;;;;;;;5.40;1.80;;;;;;;15.18;72.64;97926.77;1739069;82;21005;-62
2021/06/17 03:24:38;;;;;;;3.80;1.77;;;;;;;15.16;72.13;97927.44;1748147;82;20965;-62
2021/06/17 03:27:08;;;;;;;2.25;1.47;;;;;;;15.12;74.30;97931.38;1747734;82;21032;-62
2021/06/17 03:29:40;;;;;;;3.35;1.67;;;;;;;15.04;75.14;97931.42;1752633;81;20989;-63
2021/06/17 03:32:10;;;;;;;2.12;1.47;;;;;;;15.02;75.41;97936.48;1756472;82;21004;-64
2021/06/17 03:34:40;;;;;;;2.12;1.50;;;;;;;15.03;74.28;97931.59;1756287;82;21090;-64
2021/06/17 03:37:08;;;;;;;5.03;2.33;;;;;;;15.06;73.83;97937.28;1756238;82;20973;-64
2021/06/17 03:39:37;;;;;;;62.25;30.10;;;;;;;15.11;74.12;97936.77;1756329;82;21445;-65
2021/06/17 03:42:07;;;;;;;53.50;25.95;;;;;;;15.15;73.65;97937.58;1756179;81;21051;-64
2021/06/17 03:44:37;;;;;;;48.05;22.48;;;;;;;15.19;73.61;97936.73;1756235;82;20996;-65
2021/06/17 03:47:05;;;;;;;47.65;22.90;;;;;;;15.22;73.13;97942.92;1756066;82;20999;-64
2021/06/17 03:49:33;;;;;;;15.10;8.35;;;;;;;15.28;72.97;97948.80;1756194;81;21001;-64
2021/06/17 03:52:01;;;;;;;3.75;3.17;;;;;;;15.33;72.87;97952.20;1756454;82;21060;-63
2021/06/17 03:54:30;;;;;;;2.85;2.10;;;;;;;15.30;73.92;97961.20;1756506;82;20961;-64
2021/06/17 03:57:00;;;;;;;3.00;2.35;;;;;;;15.25;73.99;97961.41;1756813;82;21016;-67
2021/06/17 03:59:36;;;;;;;3.37;1.70;;;;;;;15.18;74.91;97965.17;1756585;82;20981;-63
2021/06/17 04:02:04;;;;;;;3.75;2.15;;;;;;;15.17;74.33;97965.67;1749336;82;21012;-62
2021/06/17 04:04:31;;;;;;;3.87;2.30;;;;;;;15.16;74.96;97973.22;1746091;82;21008;-66
2021/06/17 04:07:02;;;;;;;3.80;1.98;;;;;;;15.17;75.19;97981.88;1756828;82;21119;-60
2021/06/17 04:09:32;;;;;;;5.65;2.20;;;;;;;15.24;74.28;97978.08;1756124;82;21000;-63
2021/06/17 04:12:04;;;;;;;2.60;1.85;;;;;;;15.33;73.60;97980.47;1751520;82;21051;-65
2021/06/17 04:14:34;;;;;;;2.02;1.70;;;;;;;15.44;73.42;97971.43;1741158;82;21087;-64
2021/06/17 04:17:03;;;;;;;2.62;2.00;;;;;;;15.49;74.10;97972.55;1731171;82;21000;-64
2021/06/17 04:19:32;;;;;;;4.22;2.30;;;;;;;15.58;73.09;97969.40;1726839;82;21107;-64
2021/06/17 04:22:03;;;;;;;4.62;2.08;;;;;;;15.70;72.66;97964.58;1729526;81;20956;-63
2021/06/17 04:24:35;;;;;;;4.17;1.80;;;;;;;15.80;71.94;97963.34;1751505;82;21154;-64
2021/06/17 04:27:04;;;;;;;2.30;1.90;;;;;;;15.89;71.86;97960.98;1755323;82;21075;-63
2021/06/17 04:29:37;;;;;;;2.98;1.98;;;;;;;15.99;71.58;97965.48;1745006;82;21042;-65
2021/06/17 04:32:05;;;;;;;2.15;1.57;;;;;;;16.10;71.18;97977.36;1733146;82;21060;-64
2021/06/17 04:34:34;;;;;;;3.87;2.55;;;;;;;16.19;70.78;97977.59;1737081;82;20988;-64
2021/06/17 04:37:04;;;;;;;4.80;2.00;;;;;;;16.31;71.00;97976.66;1732714;82;21154;-64
2021/06/17 04:39:32;;;;;;;3.45;2.20;;;;;;;16.42;70.53;97972.32;1720697;83;21047;-63
2021/06/17 04:41:59;;;;;;;1.98;1.67;;;;;;;16.53;70.52;97979.25;1720846;83;21008;-64
2021/06/17 04:44:26;;;;;;;3.15;1.70;;;;;;;16.67;70.80;97987.31;1726420;82;20984;-64
2021/06/17 04:46:55;;;;;;;3.25;2.25;;;;;;;16.75;70.35;97991.98;1750456;82;20985;-63
2021/06/17 04:49:23;;;;;;;3.17;2.15;;;;;;;16.81;69.06;97997.80;1735327;82;21115;-63
2021/06/17 04:51:53;;;;;;;3.33;2.27;;;;;;;16.79;68.91;97995.87;1690581;83;21063;-62
2021/06/17 04:54:22;;;;;;;5.08;2.02;;;;;;;16.84;69.44;97996.64;1720195;83;21127;-62
2021/06/17 04:56:48;;;;;;;3.62;2.20;;;;;;;17.00;69.22;97999.88;1719490;82;21808;-61
2021/06/17 04:59:17;;;;;;;2.80;1.87;;;;;;;17.14;68.70;97998.73;1720337;83;21139;-61
2021/06/17 05:01:44;;;;;;;2.62;1.90;;;;;;;17.16;67.75;97995.45;1720953;83;21072;-61
2021/06/17 05:04:11;;;;;;;4.55;2.05;;;;;;;17.21;67.53;97995.20;1720878;83;21015;-61
2021/06/17 05:06:40;;;;;;;2.27;1.70;;;;;;;17.32;67.26;97998.66;1720781;83;21083;-61
2021/06/17 05:11:53;;;;;;;4.13;1.80;;;;;;;17.56;66.41;97996.20;1719847;83;21050;-62
2021/06/17 05:14:21;;;;;;;2.00;1.52;;;;;;;17.67;66.14;98001.48;1720159;83;21019;-62
2021/06/17 05:16:48;;;;;;;1.70;1.50;;;;;;;17.69;65.18;97997.70;1720563;83;21023;-61
2021/06/17 05:19:15;;;;;;;4.60;1.72;;;;;;;17.81;65.45;97995.39;1720529;83;21523;-62
2021/06/17 05:21:43;;;;;;;2.22;1.37;;;;;;;17.99;65.26;97999.20;1720984;83;21073;-62
2021/06/17 05:24:10;;;;;;;2.37;1.80;;;;;;;18.14;64.71;98008.31;1720926;83;21477;-62
2021/06/17 05:26:37;;;;;;;1.95;1.77;;;;;;;18.21;64.28;97997.35;1720657;83;21044;-62
2021/06/17 05:29:05;;;;;;;3.95;1.70;;;;;;;18.28;63.90;98002.69;1717650;83;21047;-62
2021/06/17 05:31:33;;;;;;;7.95;1.90;;;;;;;18.29;63.87;98003.79;1695794;84;21028;-62
2021/06/17 05:33:59;;;;;;;7.10;2.40;;;;;;;18.31;63.72;98014.13;1695878;84;21024;-62
2021/06/17 05:36:27;;;;;;;4.60;1.95;;;;;;;18.15;64.05;98006.01;1695602;83;21179;-62
2021/06/17 05:38:54;;;;;;;4.22;1.82;;;;;;;18.13;64.47;98008.00;1695582;84;21130;-62
2021/06/17 05:41:21;;;;;;;3.45;1.40;;;;;;;18.35;63.95;98008.30;1662222;85;21053;-62
2021/06/17 05:43:48;;;;;;;2.37;1.50;;;;;;;18.53;63.11;98009.16;1696092;84;21513;-62
2021/06/17 05:46:14;;;;;;;5.90;1.82;;;;;;;18.64;62.54;98011.75;1695568;84;21018;-63
2021/06/17 05:48:42;;;;;;;3.25;1.67;;;;;;;18.81;62.18;98014.41;1661866;85;21153;-62
2021/06/17 05:51:09;;;;;;;5.65;2.33;;;;;;;18.86;61.69;98012.02;1662311;85;21065;-62
2021/06/17 05:53:36;;;;;;;5.33;2.35;;;;;;;18.92;61.24;98009.91;1661826;86;21026;-62
2021/06/17 05:56:03;;;;;;;5.08;1.80;;;;;;;19.03;61.48;98008.55;1695784;84;21128;-62
2021/06/17 05:58:34;;;;;;;4.03;1.57;;;;;;;19.11;60.53;98010.52;1695701;85;21537;-63
2021/06/17 06:01:04;;;;;;;3.35;1.80;;;;;;;19.25;60.26;98008.27;1695771;84;21109;-62
2021/06/17 06:03:33;;;;;;;3.80;2.02;;;;;;;19.29;59.40;98009.50;1661902;86;21553;-62
2021/06/17 06:06:00;;;;;;;6.70;1.85;;;;;;;19.42;59.53;98008.75;1661028;86;21164;-62
2021/06/17 06:08:27;;;;;;;2.58;1.70;;;;;;;19.46;58.69;98011.80;1679192;85;21093;-62
2021/06/17 06:10:54;;;;;;;2.90;1.62;;;;;;;19.60;58.67;98014.80;1678278;84;21074;-62
2021/06/17 06:13:20;;;;;;;4.30;1.92;;;;;;;19.69;58.64;98010.45;1678661;85;21061;-63
2021/06/17 06:15:47;;;;;;;2.83;1.85;;;;;;;19.79;58.58;98019.31;1678343;85;21074;-64
2021/06/17 06:18:15;;;;;;;2.62;1.85;;;;;;;19.89;57.86;98023.67;1678703;85;21128;-64
2021/06/17 06:20:47;;;;;;;2.27;1.85;;;;;;;20.05;57.90;98018.53;1678528;85;21082;-64
2021/06/17 06:23:17;;;;;;;2.22;1.67;;;;;;;20.18;57.93;98017.23;1678972;85;21175;-63
2021/06/17 06:25:46;;;;;;;2.12;1.77;;;;;;;20.26;57.99;98015.72;1678568;85;21082;-63
2021/06/17 06:28:13;;;;;;;3.08;1.62;;;;;;;20.31;58.44;98019.92;1678829;84;21132;-63
2021/06/17 06:30:40;;;;;;;4.25;2.20;;;;;;;20.46;57.97;98025.80;1704954;83;21023;-64
2021/06/17 06:33:07;;;;;;;2.37;1.62;;;;;;;20.57;58.10;98020.41;1718075;83;21005;-64
2021/06/17 06:35:35;;;;;;;2.55;1.70;;;;;;;20.63;57.62;98026.17;1718116;83;21123;-63
2021/06/17 06:38:03;;;;;;;3.50;1.50;;;;;;;20.68;57.32;98024.55;1717873;83;21595;-64
2021/06/17 06:40:30;;;;;;;3.35;1.98;;;;;;;20.86;56.69;98014.66;1717903;83;21016;-64
2021/06/17 06:42:57;;;;;;;2.20;1.75;;;;;;;21.17;56.28;98022.73;1718010;83;21500;-63
2021/06/17 06:45:25;;;;;;;3.83;1.80;;;;;;;21.35;55.83;98018.63;1717724;83;21511;-64
2021/06/17 06:47:53;;;;;;;5.58;1.72;;;;;;;21.43;55.66;98024.99;1718350;83;21467;-64
2021/06/17 06:50:20;;;;;;;5.00;1.70;;;;;;;21.51;54.68;98018.15;1718205;83;21050;-64
2021/06/17 06:52:48;;;;;;;1.98;1.22;;;;;;;21.58;54.43;98021.56;1717818;83;21541;-64
2021/06/17 06:55:15;;;;;;;3.70;1.22;;;;;;;21.71;53.87;98017.55;1717809;83;21013;-64
2021/06/17 06:57:42;;;;;;;2.22;1.30;;;;;;;21.74;53.51;98021.89;1718061;83;21519;-64
2021/06/17 07:00:13;;;;;;;1.95;1.50;;;;;;;21.84;53.95;98018.77;1718015;83;21052;-64
2021/06/17 07:02:40;;;;;;;2.20;1.30;;;;;;;21.98;52.70;98017.72;1717981;83;21087;-64
2021/06/17 07:05:08;;;;;;;3.65;1.45;;;;;;;22.13;52.79;98020.05;1717665;83;21671;-64
2021/06/17 07:07:35;;;;;;;2.05;1.17;;;;;;;22.17;51.85;98014.63;1718066;83;21114;-64
2021/06/17 07:10:05;;;;;;;3.42;1.30;;;;;;;22.29;51.99;98018.71;1718084;83;21048;-64
2021/06/17 07:12:32;;;;;;;2.90;1.30;;;;;;;22.43;51.92;98018.89;1718141;83;21042;-64
2021/06/17 07:14:59;;;;;;;1.47;1.20;;;;;;;22.59;51.07;98013.05;1717816;83;20965;-64
2021/06/17 07:17:27;;;;;;;3.15;1.20;;;;;;;22.69;49.57;98016.03;1718214;83;21103;-64
2021/06/17 07:19:55;;;;;;;1.82;1.40;;;;;;;22.81;48.80;98014.28;1717939;83;21023;-64
2021/06/17 07:22:24;;;;;;;2.00;1.40;;;;;;;22.89;48.76;98012.68;1717931;83;21011;-64
2021/06/17 07:24:53;;;;;;;2.30;1.30;;;;;;;22.89;48.83;98016.65;1717918;83;21515;-64
2021/06/17 07:27:21;;;;;;;1.30;1.17;;;;;;;23.09;48.46;98017.25;1718279;83;21040;-64
2021/06/17 07:29:48;;;;;;;2.02;1.40;;;;;;;23.34;47.84;98024.31;1718066;82;21036;-64
2021/06/17 07:32:15;;;;;;;1.85;0.98;;;;;;;23.62;47.74;98022.75;1717900;83;21076;-64
2021/06/17 07:34:44;;;;;;;2.67;1.27;;;;;;;23.92;46.79;98022.77;1718071;83;21524;-64
2021/06/17 07:37:11;;;;;;;1.98;1.37;;;;;;;24.02;46.11;98008.94;1718401;83;20980;-64
2021/06/17 07:39:38;;;;;;;1.95;1.47;;;;;;;24.09;44.00;98023.71;1718205;83;21023;-64
2021/06/17 07:42:06;;;;;;;2.25;1.42;;;;;;;24.43;44.44;98028.03;1717785;83;21084;-64
2021/06/17 07:44:33;;;;;;;1.37;1.15;;;;;;;24.41;43.38;98030.09;1718171;83;21008;-64
2021/06/17 07:47:00;;;;;;;6.00;1.30;;;;;;;24.43;43.67;98026.70;1717922;83;21060;-64
2021/06/17 07:49:27;;;;;;;3.20;1.45;;;;;;;24.63;43.60;98029.81;1718239;83;21043;-64
2021/06/17 07:51:54;;;;;;;1.77;1.10;;;;;;;24.67;43.68;98032.30;1718041;83;21064;-63
2021/06/17 07:54:21;;;;;;;2.20;0.90;;;;;;;25.01;45.42;98029.39;1717939;83;21088;-64
2021/06/17 07:56:48;;;;;;;2.25;1.27;;;;;;;25.36;44.06;98031.98;1717840;83;21178;-64
2021/06/17 07:59:18;;;;;;;4.35;1.60;;;;;;;25.40;42.14;98033.94;1718171;83;21103;-65
2021/06/17 08:01:46;;;;;;;2.17;1.70;;;;;;;25.58;41.92;98021.02;1717811;83;21072;-64
2021/06/17 08:04:13;;;;;;;1.90;1.47;;;;;;;25.81;41.97;98022.25;1718117;83;21556;-65
2021/06/17 08:06:40;;;;;;;1.72;1.15;;;;;;;25.80;40.49;98026.46;1717945;83;21099;-65
2021/06/17 08:09:07;;;;;;;2.20;1.35;;;;;;;26.08;41.24;98022.97;1717768;83;20981;-65
2021/06/17 08:11:34;;;;;;;1.42;1.10;;;;;;;26.19;42.43;98024.78;1718088;83;21079;-64
2021/06/17 08:14:01;;;;;;;1.50;1.00;;;;;;;26.31;40.75;98024.19;1718096;83;21174;-65
2021/06/17 08:16:28;;;;;;;1.57;1.25;;;;;;;26.53;41.52;98025.10;1718133;83;21036;-65
2021/06/17 08:18:55;;;;;;;2.40;1.45;;;;;;;26.22;39.49;98020.34;1717759;83;21111;-64
2021/06/17 08:21:23;;;;;;;2.10;1.77;;;;;;;26.67;39.11;98017.05;1717983;83;21488;-64
2021/06/17 08:23:50;;;;;;;2.20;1.42;;;;;;;26.84;39.97;98019.20;1718088;83;21130;-64
2021/06/17 08:26:16;;;;;;;1.60;1.20;;;;;;;27.09;40.33;98008.58;1718128;83;21000;-64
2021/06/17 08:28:43;;;;;;;1.70;1.20;;;;;;;27.22;40.93;98003.70;1717816;83;21007;-65
2021/06/17 08:31:10;;;;;;;1.92;1.47;;;;;;;27.18;40.45;98008.45;1717822;83;20992;-63
2021/06/17 08:33:39;;;;;;;2.10;1.35;;;;;;;27.05;40.15;98007.47;1717936;83;21103;-62
2021/06/17 08:36:08;;;;;;;3.62;3.30;;;;;;;26.86;39.59;98022.42;1718284;83;20980;-65
2021/06/17 08:38:36;;;;;;;7.12;2.10;;;;;;;26.25;40.43;98021.17;1718175;83;21083;-64
2021/06/17 08:41:04;;;;;;;3.40;1.70;;;;;;;26.39;40.82;98027.27;1717972;83;21141;-65
2021/06/17 08:43:32;;;;;;;2.90;1.95;;;;;;;26.09;39.14;98023.27;1718010;83;21503;-64
2021/06/17 08:45:58;;;;;;;3.15;1.85;;;;;;;26.17;39.66;98024.20;1717775;83;21544;-65
2021/06/17 08:48:27;;;;;;;3.12;2.00;;;;;;;26.35;39.68;98022.66;1717861;83;21682;-65
2021/06/17 08:50:54;;;;;;;4.03;1.72;;;;;;;26.24;40.40;98019.55;1718046;83;21012;-64
2021/06/17 08:53:23;;;;;;;4.67;1.65;;;;;;;26.32;40.46;98023.16;1718021;83;21563;-64
2021/06/17 08:55:50;;;;;;;2.10;1.50;;;;;;;26.37;39.99;98025.39;1718214;83;21066;-64
2021/06/17 08:58:18;;;;;;;2.40;1.67;;;;;;;26.39;39.68;98026.45;1717953;83;21067;-64
2021/06/17 09:00:47;;;;;;;3.00;1.70;;;;;;;26.53;38.72;98028.28;1718071;83;21072;-64
2021/06/17 09:03:19;;;;;;;4.50;1.70;;;;;;;26.72;38.89;98026.98;1718173;83;21298;-65
2021/06/17 09:05:53;;;;;;;2.40;1.50;;;;;;;27.05;37.68;98026.93;1718185;83;20999;-64
2021/06/17 09:08:27;;;;;;;1.85;1.47;;;;;;;27.35;37.63;98029.20;1718059;83;21488;-64
2021/06/17 09:10:55;;;;;;;2.80;1.30;;;;;;;27.42;36.60;98038.34;1718012;83;21200;-64
2021/06/17 09:13:30;;;;;;;1.67;1.17;;;;;;;27.56;37.41;98031.59;1718179;83;21214;-64
2021/06/17 09:15:58;;;;;;;2.37;1.15;;;;;;;27.52;37.54;98039.28;1717953;83;21127;-64
2021/06/17 09:18:34;;;;;;;1.92;1.72;;;;;;;27.54;36.25;98036.38;1718157;83;21020;-64
2021/06/17 09:21:05;;;;;;;3.05;1.65;;;;;;;27.11;37.34;98037.15;1718090;83;21099;-65
2021/06/17 09:23:41;;;;;;;3.35;2.40;;;;;;;27.26;37.11;98031.48;1717986;83;22226;-65
2021/06/17 09:26:20;;;;;;;3.37;1.90;;;;;;;27.21;36.92;98030.08;1718250;83;21118;-65
2021/06/17 09:28:54;;;;;;;2.47;1.50;;;;;;;27.38;36.92;98028.17;1718271;83;21087;-64
2021/06/17 09:31:25;;;;;;;1.77;1.45;;;;;;;27.39;37.03;98034.32;1718298;83;21536;-65
2021/06/17 09:33:54;;;;;;;2.17;1.47;;;;;;;27.25;35.97;98021.06;1717984;83;21519;-65
2021/06/17 09:36:32;;;;;;;2.02;1.20;;;;;;;27.34;36.26;98023.58;1718413;83;21000;-64
2021/06/17 09:39:08;;;;;;;3.42;1.27;;;;;;;27.59;35.07;98027.08;1718441;83;21017;-65
2021/06/17 09:41:46;;;;;;;1.90;1.50;;;;;;;27.58;35.31;98014.83;1718338;83;21134;-65
2021/06/17 09:44:33;;;;;;;1.70;1.40;;;;;;;27.69;34.93;98020.02;1718390;83;21031;-64
2021/06/17 09:47:09;;;;;;;2.30;1.40;;;;;;;27.77;35.02;98008.09;1726582;83;21012;-64
2021/06/17 09:49:39;;;;;;;1.65;1.30;;;;;;;27.87;35.50;98008.70;1726212;83;21067;-64
2021/06/17 09:52:08;;;;;;;6.55;1.60;;;;;;;28.02;34.79;98011.52;1725691;82;21175;-64
2021/06/17 09:54:39;;;;;;;2.42;1.40;;;;;;;28.87;34.38;98008.74;1726116;83;21130;-64
2021/06/17 09:57:09;;;;;;;3.10;1.37;;;;;;;29.50;32.98;98002.38;1726071;82;21564;-65
2021/06/17 09:59:45;;;;;;;2.25;1.45;;;;;;;29.97;32.82;98001.43;1725794;80;21496;-63
2021/06/17 10:02:36;;;;;;;1.27;1.00;;;;;;;30.38;31.89;98004.41;1726262;83;21536;-65
2021/06/17 10:05:21;;;;;;;2.55;1.00;;;;;;;30.12;26.94;98004.12;1726191;83;20988;-65
2021/06/17 10:07:50;;;;;;;1.10;1.00;;;;;;;30.40;29.19;98010.82;1726005;83;21571;-65
2021/06/17 10:10:22;;;;;;;2.12;1.60;;;;;;;30.83;30.31;98001.41;1726289;83;21131;-65
2021/06/17 10:12:49;;;;;;;1.95;1.20;;;;;;;30.83;31.45;98008.92;1726184;83;20984;-64
2021/06/17 10:15:17;;;;;;;1.37;1.25;;;;;;;31.11;30.17;98006.20;1726050;83;21019;-65
2021/06/17 10:17:44;;;;;;;3.47;1.25;;;;;;;30.65;29.13;97991.27;1726297;83;21516;-65
2021/06/17 10:20:13;;;;;;;1.92;1.22;;;;;;;31.11;27.97;98002.70;1726311;83;21480;-65
2021/06/17 10:22:42;;;;;;;3.77;1.32;;;;;;;31.07;29.17;97986.36;1726199;83;21027;-64
2021/06/17 10:25:13;;;;;;;5.65;1.57;;;;;;;31.01;28.47;98001.66;1725870;83;21511;-65
2021/06/17 10:27:44;;;;;;;2.77;1.15;;;;;;;31.28;28.62;97992.46;1725218;83;21045;-64
2021/06/17 10:30:14;;;;;;;2.65;1.30;;;;;;;31.59;27.72;97995.29;1706020;83;20992;-64
2021/06/17 10:32:46;;;;;;;2.12;1.92;;;;;;;31.04;28.47;97993.62;1725957;83;21645;-64
2021/06/17 10:35:31;;;;;;;1.77;1.60;;;;;;;31.18;28.39;97989.27;1726027;83;21051;-63
2021/06/17 10:38:05;;;;;;;3.10;1.80;;;;;;;30.96;29.13;97983.42;1725940;83;21550;-64
2021/06/17 10:40:35;;;;;;;4.22;3.05;;;;;;;31.26;29.06;97980.65;1726341;83;21042;-64
2021/06/17 10:43:07;;;;;;;2.30;1.60;;;;;;;31.50;28.85;97984.30;1725916;83;21118;-63
2021/06/17 10:45:41;;;;;;;2.50;1.67;;;;;;;31.88;28.53;97977.91;1722670;81;21000;-63
2021/06/17 10:48:14;;;;;;;2.55;1.37;;;;;;;31.12;29.81;97970.26;1726113;83;22107;-64
2021/06/17 10:50:52;;;;;;;2.00;1.50;;;;;;;31.25;29.71;97977.70;1726138;83;20960;-64
2021/06/17 10:53:34;;;;;;;2.20;1.50;;;;;;;31.79;28.53;97981.72;1726212;83;21594;-64
2021/06/17 10:56:23;;;;;;;2.05;1.40;;;;;;;31.64;28.72;97974.30;1726164;83;21039;-64
2021/06/17 10:58:56;;;;;;;1.50;1.20;;;;;;;31.14;29.71;97970.77;1725904;83;21496;-65
2021/06/17 11:01:42;;;;;;;3.15;1.27;;;;;;;30.67;28.55;97961.77;1725893;82;21008;-64
2021/06/17 11:04:14;;;;;;;;;;;;;;;31.00;28.66;97965.74;1728445;83;21129;-64
2021/06/17 11:07:07;;;;;;;1.57;1.35;;;;;;;31.17;27.95;97966.76;1726133;83;20129;-64
2021/06/17 11:09:44;;;;;;;7.37;1.50;;;;;;;32.39;27.08;97974.30;1726204;83;21027;-64
2021/06/17 11:12:24;;;;;;;1.52;1.25;;;;;;;32.39;27.08;97974.30;1726101;83;21083;-64
2021/06/17 11:14:56;;;;;;;2.00;1.35;;;;;;;31.17;28.22;97958.14;1726359;83;21535;-63
2021/06/17 11:17:34;;;;;;;1.87;1.10;;;;;;;30.71;33.13;97987.50;1725885;83;21580;-65
2021/06/17 11:20:09;;;;;;;2.62;1.00;;;;;;;30.71;33.13;97987.50;1725716;83;20984;-64
2021/06/17 11:22:49;;;;;;;2.10;1.40;;;;;;;30.47;35.21;98005.48;1725962;83;21054;-64
2021/06/17 11:25:22;;;;;;;2.75;1.47;;;;;;;29.74;36.81;98015.28;1726015;83;21012;-64
2021/06/17 11:28:13;;;;;;;3.08;1.47;;;;;;;29.49;38.03;98012.83;1738868;82;21059;-64
2021/06/17 11:30:53;;;;;;;3.35;1.62;;;;;;;29.18;41.16;98019.09;1725827;83;21535;-63
2021/06/17 11:33:26;;;;;;;5.80;1.60;;;;;;;28.54;40.65;98024.55;1718167;83;21099;-65
2021/06/17 11:36:03;;;;;;;3.25;1.35;;;;;;;28.34;39.73;98014.23;1718093;83;21114;-63
2021/06/17 11:38:32;;;;;;;1.30;1.00;;;;;;;27.97;39.03;98013.63;1718354;83;21142;-65
2021/06/17 11:41:09;;;;;;;5.75;1.30;;;;;;;28.01;38.22;98018.74;1731593;82;21104;-65
2021/06/17 11:43:36;;;;;;;3.55;1.50;;;;;;;27.97;38.07;98017.64;1747362;82;20966;-65
2021/06/17 11:46:03;;;;;;;1.57;1.17;;;;;;;28.27;37.91;98016.59;1746693;82;20997;-64
2021/06/17 11:48:32;;;;;;;4.00;1.30;;;;;;;28.72;36.91;98016.67;1747925;82;20957;-64
2021/06/17 11:50:59;;;;;;;2.30;1.55;;;;;;;29.09;35.20;98009.42;1747764;82;21516;-65
2021/06/17 11:53:27;;;;;;;1.87;1.35;;;;;;;29.29;34.31;98007.39;1748061;82;21474;-63